Time;durP1;ratioP1;P1;durP2;ratioP2;P2;SDS_P1;SDS_P2;PMS_P1;PMS_P2;Temp;Humidity;BMP_temperature;BMP_pressure;BME280_temperature;BME280_humidity;BME280_pressure;Samples;Min_cycle;Max_cycle;Signal;HPM_P1;HPM_P2
2022/07/08 00:02:01;;;;;;;;;;;16.30;99.90;;;;;;5010806;28;19952;-74
2022/07/08 00:04:29;;;;;;;;;;;16.20;99.90;;;;;;5067141;28;20316;-75
2022/07/08 00:06:56;;;;;;;;;;;16.20;99.90;;;;;;5067068;28;19925;-75
2022/07/08 00:09:22;;;;;;;;;;;16.20;99.90;;;;;;5050696;28;19932;-75
2022/07/08 00:11:49;;;;;;;;;;;16.30;99.90;;;;;;5066338;28;20559;-75
2022/07/08 00:14:16;;;;;;;;;;;16.20;99.90;;;;;;5050803;28;19959;-74
2022/07/08 00:16:43;;;;;;;;;;;16.20;99.90;;;;;;5060789;28;19996;-76
2022/07/08 00:19:14;;;;;;;;;;;16.20;99.90;;;;;;5030570;28;19921;-75
2022/07/08 00:21:41;;;;;;;;;;;16.20;99.90;;;;;;5029816;28;19921;-76
2022/07/08 00:24:08;;;;;;;;;;;16.30;99.90;;;;;;5029413;28;19929;-75
2022/07/08 00:26:38;;;;;;;;;;;16.30;99.90;;;;;;5030166;28;19920;-75
2022/07/08 00:29:05;;;;;;;;;;;16.30;99.90;;;;;;5029197;28;19928;-75
2022/07/08 00:31:33;;;;;;;;;;;16.30;99.90;;;;;;5031755;28;20406;-78
2022/07/08 00:34:00;;;;;;;;;;;16.30;99.90;;;;;;5033044;28;19932;-78
2022/07/08 00:36:28;;;;;;;;;;;16.20;99.90;;;;;;5024280;28;20296;-79
2022/07/08 00:38:55;;;;;;;;;;;16.20;99.90;;;;;;5013060;28;20060;-78
2022/07/08 00:41:22;;;;;;;;;;;16.10;99.90;;;;;;5011328;28;19975;-78
2022/07/08 00:43:53;;;;;;;;;;;16.20;99.90;;;;;;5027832;28;19921;-77
2022/07/08 00:46:21;;;;;;;;;;;16.20;99.90;;;;;;5031329;28;20008;-78
2022/07/08 00:48:48;;;;;;;;;;;16.10;99.90;;;;;;5030774;28;19936;-77
2022/07/08 00:51:16;;;;;;;;;;;16.10;99.90;;;;;;5043492;28;19982;-76
2022/07/08 00:53:46;;;;;;;;;;;16.10;99.90;;;;;;5011085;28;20485;-76
2022/07/08 00:56:13;;;;;;;;;;;16.10;99.90;;;;;;5026935;28;19921;-78
2022/07/08 00:58:41;;;;;;;;;;;16.10;99.90;;;;;;5050993;28;19921;-78
2022/07/08 01:01:08;;;;;;;;;;;16.10;99.90;;;;;;5043043;28;20384;-78
2022/07/08 01:03:35;;;;;;;;;;;16.10;99.90;;;;;;5048068;28;19924;-78
2022/07/08 01:06:02;;;;;;;;;;;16.10;99.90;;;;;;5053953;28;20323;-79
2022/07/08 01:08:29;;;;;;;;;;;16.00;99.90;;;;;;5054940;28;20420;-79
2022/07/08 01:10:58;;;;;;;;;;;16.10;99.90;;;;;;5054028;28;19924;-79
2022/07/08 01:13:26;;;;;;;;;;;16.10;99.90;;;;;;5053512;28;19925;-77
2022/07/08 01:15:53;;;;;;;;;;;16.10;99.90;;;;;;5032336;28;19925;-78
2022/07/08 01:18:21;;;;;;;;;;;16.10;99.90;;;;;;5063797;28;20257;-78
2022/07/08 01:20:49;;;;;;;;;;;16.10;99.90;;;;;;5050191;28;19936;-75
2022/07/08 01:23:16;;;;;;;;;;;16.10;99.90;;;;;;5029436;28;19921;-75
2022/07/08 01:25:43;;;;;;;;;;;16.10;99.90;;;;;;5028815;28;19932;-74
2022/07/08 01:28:11;;;;;;;;;;;16.00;99.90;;;;;;5030121;28;19925;-77
2022/07/08 01:30:38;;;;;;;;;;;16.00;99.90;;;;;;5031003;28;19932;-75
2022/07/08 01:33:05;;;;;;;;;;;16.00;99.90;;;;;;5044987;28;19928;-75
2022/07/08 01:35:32;;;;;;;;;;;16.00;99.90;;;;;;5045199;28;19932;-78
2022/07/08 01:38:00;;;;;;;;;;;16.00;99.90;;;;;;5030321;28;19986;-74
2022/07/08 01:40:27;;;;;;;;;;;16.00;99.90;;;;;;5033682;28;20373;-79
2022/07/08 01:42:54;;;;;;;;;;;16.00;99.90;;;;;;5032165;28;19963;-77
2022/07/08 01:45:21;;;;;;;;;;;16.40;99.90;;;;;;5046868;28;19924;-75
2022/07/08 01:47:48;;;;;;;;;;;16.00;99.90;;;;;;5030238;28;19975;-75
2022/07/08 01:50:15;;;;;;;;;;;16.00;99.90;;;;;;5030514;28;19925;-75
2022/07/08 01:52:44;;;;;;;;;;;16.00;99.90;;;;;;5040025;28;19928;-75
2022/07/08 01:55:12;;;;;;;;;;;16.00;99.90;;;;;;5045833;28;19921;-75
2022/07/08 01:57:39;;;;;;;;;;;16.00;99.90;;;;;;5029867;28;19925;-75
2022/07/08 02:00:07;;;;;;;;;;;16.00;99.90;;;;;;5031198;28;19943;-77
2022/07/08 02:02:40;;;;;;;;;;;16.00;99.90;;;;;;5028990;28;19931;-77
2022/07/08 02:05:07;;;;;;;;;;;16.00;99.90;;;;;;5030107;28;19921;-77
2022/07/08 02:07:34;;;;;;;;;;;16.00;99.90;;;;;;5027242;28;20274;-78
2022/07/08 02:10:01;;;;;;;;;;;15.90;99.90;;;;;;5028149;28;20383;-78
2022/07/08 02:12:28;;;;;;;;;;;15.90;99.90;;;;;;5028259;28;19929;-77
2022/07/08 02:15:01;;;;;;;;;;;15.90;99.90;;;;;;5030113;28;19968;-77
2022/07/08 02:17:28;;;;;;;;;;;;;;;;;;5046118;28;19929;-77
2022/07/08 02:19:55;;;;;;;;;;;15.90;99.90;;;;;;5044901;28;19975;-78
2022/07/08 02:22:22;;;;;;;;;;;15.90;99.90;;;;;;5045526;28;19925;-78
2022/07/08 02:24:52;;;;;;;;;;;15.90;99.90;;;;;;5029667;28;19943;-78
2022/07/08 02:27:19;;;;;;;;;;;15.90;99.90;;;;;;5028316;28;20278;-77
2022/07/08 02:29:47;;;;;;;;;;;15.90;99.90;;;;;;5027104;28;19925;-77
2022/07/08 02:32:17;;;;;;;;;;;15.90;99.90;;;;;;5027907;28;20015;-77
2022/07/08 02:34:44;;;;;;;;;;;15.90;99.90;;;;;;5043822;28;19928;-77
2022/07/08 02:37:13;;;;;;;;;;;15.90;99.90;;;;;;5044150;28;19925;-76
2022/07/08 02:39:40;;;;;;;;;;;15.90;99.90;;;;;;5029763;28;19928;-77
2022/07/08 02:42:08;;;;;;;;;;;15.90;99.90;;;;;;5048072;28;20392;-77
2022/07/08 02:44:35;;;;;;;;;;;15.90;99.90;;;;;;5031806;28;20060;-77
2022/07/08 02:47:04;;;;;;;;;;;15.90;99.90;;;;;;5047702;28;19924;-77
2022/07/08 02:49:31;;;;;;;;;;;15.90;99.90;;;;;;5047267;28;19921;-77
2022/07/08 02:51:58;;;;;;;;;;;15.90;99.90;;;;;;5048675;28;19994;-77
2022/07/08 02:54:25;;;;;;;;;;;15.80;99.90;;;;;;5031649;28;19925;-76
2022/07/08 02:56:52;;;;;;;;;;;15.80;99.90;;;;;;5048109;28;19925;-77
2022/07/08 02:59:19;;;;;;;;;;;15.80;99.90;;;;;;5048502;28;19928;-77
2022/07/08 03:01:46;;;;;;;;;;;15.80;99.90;;;;;;5033918;28;20357;-78
2022/07/08 03:04:14;;;;;;;;;;;15.80;99.90;;;;;;5032488;28;19921;-78
2022/07/08 03:06:41;;;;;;;;;;;15.90;99.90;;;;;;5032373;28;19933;-78
2022/07/08 03:09:07;;;;;;;;;;;15.80;99.90;;;;;;5046938;28;19929;-77
2022/07/08 03:11:34;;;;;;;;;;;15.80;99.90;;;;;;5047871;28;20671;-78
2022/07/08 03:14:01;;;;;;;;;;;15.80;99.90;;;;;;5048494;28;20300;-78
2022/07/08 03:16:28;;;;;;;;;;;15.70;99.90;;;;;;5031499;28;19975;-78
2022/07/08 03:18:55;;;;;;;;;;;15.70;99.90;;;;;;5032249;28;19979;-78
2022/07/08 03:21:23;;;;;;;;;;;15.70;99.90;;;;;;5043438;28;20381;-77
2022/07/08 03:23:50;;;;;;;;;;;15.70;99.90;;;;;;5011582;28;20337;-77
2022/07/08 03:26:17;;;;;;;;;;;15.70;99.90;;;;;;5011767;28;19925;-77
2022/07/08 03:28:44;;;;;;;;;;;15.70;99.90;;;;;;5011374;28;19921;-77
2022/07/08 03:31:11;;;;;;;;;;;15.70;99.90;;;;;;5036878;28;19925;-77
2022/07/08 03:33:38;;;;;;;;;;;15.70;99.90;;;;;;5030534;28;19979;-77
2022/07/08 03:36:06;;;;;;;;;;;15.60;99.90;;;;;;5031384;28;19921;-77
2022/07/08 03:38:34;;;;;;;;;;;15.60;99.90;;;;;;5064106;28;19956;-76
2022/07/08 03:43:45;;;;;;;;;;;15.50;99.90;;;;;;5048208;28;19928;-77
2022/07/08 03:46:12;;;;;;;;;;;15.50;99.90;;;;;;5031792;28;20447;-77
2022/07/08 03:48:39;;;;;;;;;;;15.50;99.90;;;;;;5030342;28;19944;-78
2022/07/08 03:51:06;;;;;;;;;;;15.50;99.90;;;;;;5032891;28;19921;-78
2022/07/08 03:53:35;;;;;;;;;;;15.50;99.90;;;;;;5023204;28;19985;-77
2022/07/08 03:56:02;;;;;;;;;;;15.50;99.90;;;;;;5028728;28;20531;-77
2022/07/08 03:58:28;;;;;;;;;;;15.50;99.90;;;;;;5013031;28;20519;-77
2022/07/08 04:00:55;;;;;;;;;;;15.50;99.90;;;;;;5039805;28;19933;-76
2022/07/08 04:03:22;;;;;;;;;;;15.50;99.90;;;;;;5031946;28;20377;-77
2022/07/08 04:05:49;;;;;;;;;;;15.50;99.90;;;;;;5032231;28;19924;-76
2022/07/08 04:08:18;;;;;;;;;;;15.50;99.90;;;;;;5028730;28;20016;-75
2022/07/08 04:10:46;;;;;;;;;;;15.50;99.90;;;;;;5045344;28;19921;-75
2022/07/08 04:13:13;;;;;;;;;;;15.50;99.90;;;;;;5027374;28;20339;-74
2022/07/08 04:15:40;;;;;;;;;;;15.60;99.90;;;;;;5029443;28;19929;-75
2022/07/08 04:18:07;;;;;;;;;;;15.70;99.90;;;;;;5046432;28;20300;-77
2022/07/08 04:20:39;;;;;;;;;;;15.70;99.90;;;;;;5041604;28;19909;-77
2022/07/08 04:23:07;;;;;;;;;;;15.70;99.90;;;;;;5041118;28;19921;-76
2022/07/08 04:25:36;;;;;;;;;;;15.80;99.90;;;;;;5058807;28;19912;-78
2022/07/08 04:28:05;;;;;;;;;;;15.90;99.90;;;;;;5040997;28;19927;-79
2022/07/08 04:30:32;;;;;;;;;;;15.90;99.90;;;;;;5063693;28;19921;-79
2022/07/08 04:32:59;;;;;;;;;;;15.90;99.90;;;;;;5039832;28;19936;-78
2022/07/08 04:36:00;;;;;;;;;;;15.90;99.90;;;;;;5038406;28;19921;-76
2022/07/08 04:38:27;;;;;;;;;;;15.90;99.90;;;;;;5038321;28;19909;-76
2022/07/08 04:40:54;;;;;;;;;;;15.80;99.90;;;;;;5054165;28;19935;-76
2022/07/08 04:43:22;;;;;;;;;;;15.80;99.90;;;;;;5054913;28;19920;-76
2022/07/08 04:45:49;;;;;;;;;;;15.80;99.90;;;;;;5055942;28;19931;-75
2022/07/08 04:48:17;;;;;;;;;;;16.00;99.90;;;;;;5055839;28;19921;-77
2022/07/08 04:50:44;;;;;;;;;;;16.00;99.90;;;;;;5046574;28;19922;-76
2022/07/08 04:53:11;;;;;;;;;;;16.10;99.90;;;;;;5039556;28;19924;-76
2022/07/08 04:55:38;;;;;;;;;;;16.20;99.90;;;;;;5036600;28;19921;-75
2022/07/08 04:58:06;;;;;;;;;;;16.50;99.90;;;;;;5036249;28;20047;-75
2022/07/08 05:00:35;;;;;;;;;;;16.50;99.90;;;;;;5039072;28;20369;-76
2022/07/08 05:03:02;;;;;;;;;;;16.70;99.90;;;;;;5034855;28;20362;-76
2022/07/08 05:05:30;;;;;;;;;;;16.80;99.90;;;;;;5035584;28;20018;-74
2022/07/08 05:07:57;;;;;;;;;;;16.80;99.90;;;;;;5035295;28;20505;-75
2022/07/08 05:10:24;;;;;;;;;;;16.80;99.90;;;;;;5055636;28;20398;-74
2022/07/08 05:12:52;;;;;;;;;;;16.70;99.90;;;;;;5039141;28;19931;-73
2022/07/08 05:15:19;;;;;;;;;;;16.70;99.90;;;;;;5037780;28;20457;-74
2022/07/08 05:17:48;;;;;;;;;;;16.60;99.90;;;;;;5035081;28;19991;-74
2022/07/08 05:20:15;;;;;;;;;;;16.60;99.90;;;;;;5021691;28;19910;-74
2022/07/08 05:22:42;;;;;;;;;;;16.60;99.90;;;;;;5028701;28;19972;-75
2022/07/08 05:25:15;;;;;;;;;;;16.60;99.90;;;;;;5043417;28;20007;-77
2022/07/08 05:27:42;;;;;;;;;;;16.60;99.90;;;;;;5065887;28;19968;-77
2022/07/08 05:30:11;;;;;;;;;;;16.50;99.90;;;;;;5048006;28;20580;-75
2022/07/08 05:32:38;;;;;;;;;;;16.50;99.90;;;;;;5047936;28;19949;-75
2022/07/08 05:35:07;;;;;;;;;;;16.50;99.90;;;;;;5064239;28;20030;-76
2022/07/08 05:37:37;;;;;;;;;;;16.50;99.90;;;;;;5048455;28;19920;-74
2022/07/08 05:40:05;;;;;;;;;;;16.90;99.90;;;;;;5049630;28;20027;-74
2022/07/08 05:42:32;;;;;;;;;;;17.20;99.90;;;;;;5049217;28;19921;-75
2022/07/08 05:44:59;;;;;;;;;;;17.50;99.90;;;;;;5065325;28;20320;-75
2022/07/08 05:47:26;;;;;;;;;;;18.00;99.90;;;;;;5049456;28;19960;-77
2022/07/08 05:49:53;;;;;;;;;;;18.50;99.90;;;;;;5039018;28;19928;-76
2022/07/08 05:52:21;;;;;;;;;;;18.80;99.90;;;;;;5044497;28;19937;-76
2022/07/08 05:54:48;;;;;;;;;;;19.40;99.90;;;;;;5031184;28;19953;-76
2022/07/08 05:57:16;;;;;;;;;;;20.70;99.90;;;;;;5028001;28;19925;-76
2022/07/08 05:59:44;;;;;;;;;;;20.70;99.90;;;;;;5035583;28;19925;-77
2022/07/08 06:02:11;;;;;;;;;;;20.80;99.90;;;;;;5048003;28;19931;-76
2022/07/08 06:04:38;;;;;;;;;;;20.80;99.90;;;;;;5063909;28;19924;-76
2022/07/08 06:07:05;;;;;;;;;;;20.80;99.90;;;;;;5028297;28;19921;-77
2022/07/08 06:09:33;;;;;;;;;;;20.70;99.90;;;;;;5045610;28;19932;-77
2022/07/08 06:12:00;;;;;;;;;;;20.60;99.90;;;;;;5031799;28;19952;-77
2022/07/08 06:14:27;;;;;;;;;;;20.30;99.90;;;;;;5033191;28;19925;-77
2022/07/08 06:16:55;;;;;;;;;;;20.20;99.90;;;;;;5017214;28;19956;-77
2022/07/08 06:19:23;;;;;;;;;;;20.30;99.90;;;;;;5034940;28;19921;-79
2022/07/08 06:21:51;;;;;;;;;;;20.30;99.90;;;;;;5038319;28;19978;-80
2022/07/08 06:24:19;;;;;;;;;;;20.40;99.90;;;;;;5038468;28;20019;-79
2022/07/08 06:26:47;;;;;;;;;;;20.80;99.90;;;;;;5069565;28;19933;-79
2022/07/08 06:29:14;;;;;;;;;;;21.80;99.90;;;;;;5059691;28;20050;-79
2022/07/08 06:31:41;;;;;;;;;;;22.10;99.90;;;;;;5056813;28;20338;-78
2022/07/08 06:34:16;;;;;;;;;;;22.10;99.90;;;;;;5057073;28;19975;-81
2022/07/08 06:36:43;;;;;;;;;;;22.00;99.90;;;;;;5056905;28;19947;-77
2022/07/08 06:39:10;;;;;;;;;;;22.40;99.90;;;;;;5054615;28;19931;-77
2022/07/08 06:41:37;;;;;;;;;;;22.40;99.90;;;;;;5055668;28;19921;-80
2022/07/08 06:44:06;;;;;;;;;;;22.90;99.90;;;;;;5054356;28;19925;-77
2022/07/08 06:46:33;;;;;;;;;;;23.00;99.90;;;;;;5046812;28;19929;-76
2022/07/08 06:49:00;;;;;;;;;;;23.10;99.90;;;;;;5033851;28;20331;-79
2022/07/08 06:51:27;;;;;;;;;;;23.20;99.90;;;;;;5032665;28;20392;-76
2022/07/08 06:56:39;;;;;;;;;;;25.20;99.90;;;;;;5034771;28;19921;-76
2022/07/08 06:59:08;;;;;;;;;;;25.90;99.90;;;;;;5039243;28;19937;-81
2022/07/08 07:01:35;;;;;;;;;;;27.30;99.90;;;;;;5039509;28;19921;-77
2022/07/08 07:04:03;;;;;;;;;;;28.50;99.90;;;;;;5031428;28;19925;-77
2022/07/08 07:06:30;;;;;;;;;;;30.00;99.90;;;;;;5030912;28;19975;-77
2022/07/08 07:08:57;;;;;;;;;;;31.30;98.60;;;;;;5031225;28;19933;-77
2022/07/08 07:11:24;;;;;;;;;;;32.60;95.90;;;;;;5031556;28;19970;-78
2022/07/08 07:13:51;;;;;;;;;;;33.00;90.90;;;;;;5030834;28;19995;-78
2022/07/08 07:16:19;;;;;;;;;;;33.20;90.30;;;;;;5032659;28;19956;-78
2022/07/08 07:18:46;;;;;;;;;;;33.80;88.80;;;;;;5033308;28;19952;-78
2022/07/08 07:21:13;;;;;;;;;;;33.00;78.60;;;;;;5022532;28;19971;-77
2022/07/08 07:23:40;;;;;;;;;;;34.10;77.10;;;;;;5021670;28;20304;-78
2022/07/08 07:26:07;;;;;;;;;;;33.20;76.30;;;;;;5031620;28;19971;-78
2022/07/08 07:28:35;;;;;;;;;;;32.10;76.90;;;;;;5032163;28;19928;-78
2022/07/08 07:31:02;;;;;;;;;;;31.50;77.80;;;;;;5032396;28;20407;-78
2022/07/08 07:33:30;;;;;;;;;;;30.50;77.10;;;;;;5032267;28;19974;-78
2022/07/08 07:35:57;;;;;;;;;;;29.50;78.10;;;;;;5031262;28;19925;-77
2022/07/08 07:38:25;;;;;;;;;;;28.40;81.70;;;;;;5030940;28;19921;-78
2022/07/08 07:40:52;;;;;;;;;;;28.40;80.90;;;;;;5031710;28;19924;-77
2022/07/08 07:43:19;;;;;;;;;;;28.60;82.50;;;;;;5031220;28;20343;-78
2022/07/08 07:45:46;;;;;;;;;;;29.50;84.00;;;;;;5034335;28;19932;-78
2022/07/08 07:48:13;;;;;;;;;;;31.00;78.50;;;;;;5033328;28;19932;-79
2022/07/08 07:50:41;;;;;;;;;;;31.00;78.10;;;;;;5040604;28;19921;-80
2022/07/08 07:53:08;;;;;;;;;;;31.20;75.80;;;;;;5068616;28;19921;-78
2022/07/08 07:55:35;;;;;;;;;;;30.80;75.70;;;;;;5068873;28;19928;-75
2022/07/08 07:58:03;;;;;;;;;;;30.10;74.70;;;;;;5030441;28;19963;-76
2022/07/08 08:00:30;;;;;;;;;;;29.60;75.60;;;;;;5034380;28;20028;-80
2022/07/08 08:02:57;;;;;;;;;;;30.00;78.70;;;;;;5034206;28;20072;-80
2022/07/08 08:05:24;;;;;;;;;;;30.80;78.20;;;;;;5035379;28;20415;-80
2022/07/08 08:07:52;;;;;;;;;;;31.60;76.80;;;;;;5047907;28;19949;-81
2022/07/08 08:10:19;;;;;;;;;;;32.50;75.80;;;;;;5044456;28;19921;-80
2022/07/08 08:12:46;;;;;;;;;;;33.00;73.40;;;;;;5060100;28;19943;-80
2022/07/08 08:15:14;;;;;;;;;;;33.50;73.00;;;;;;5038077;28;19952;-77
2022/07/08 08:17:41;;;;;;;;;;;33.90;70.50;;;;;;5050268;28;19924;-77
2022/07/08 08:20:09;;;;;;;;;;;34.40;71.30;;;;;;5052019;28;19938;-77
2022/07/08 08:22:36;;;;;;;;;;;34.70;68.60;;;;;;5052198;28;19925;-77
2022/07/08 08:25:05;;;;;;;;;;;35.00;68.40;;;;;;5053937;28;19924;-77
2022/07/08 08:27:32;;;;;;;;;;;35.20;64.60;;;;;;5068763;28;20031;-76
2022/07/08 08:29:59;;;;;;;;;;;34.90;65.10;;;;;;5050499;28;19927;-77
2022/07/08 08:32:26;;;;;;;;;;;34.80;63.50;;;;;;5067670;28;19925;-77
2022/07/08 08:34:52;;;;;;;;;;;34.70;61.80;;;;;;5050717;28;20343;-77
2022/07/08 08:37:19;;;;;;;;;;;34.50;63.70;;;;;;5069069;28;20304;-76
2022/07/08 08:39:46;;;;;;;;;;;34.70;65.00;;;;;;5051893;28;19929;-77
2022/07/08 08:42:17;;;;;;;;;;;34.70;62.40;;;;;;5052290;28;19921;-77
2022/07/08 08:44:44;;;;;;;;;;;34.80;63.30;;;;;;5051659;28;20059;-77
2022/07/08 08:47:12;;;;;;;;;;;34.80;59.80;;;;;;5052102;28;20337;-75
2022/07/08 08:49:41;;;;;;;;;;;34.50;61.00;;;;;;5051381;28;19925;-76
2022/07/08 08:52:10;;;;;;;;;;;34.30;61.40;;;;;;5051707;28;20280;-78
2022/07/08 08:54:37;;;;;;;;;;;34.10;62.40;;;;;;5052660;28;20381;-77
2022/07/08 08:57:07;;;;;;;;;;;34.30;61.90;;;;;;5037797;28;19943;-80
2022/07/08 08:59:35;;;;;;;;;;;34.30;61.60;;;;;;5049473;28;19932;-80
2022/07/08 09:02:02;;;;;;;;;;;34.40;60.40;;;;;;5032167;28;19929;-80
2022/07/08 09:04:31;;;;;;;;;;;33.70;59.20;;;;;;5047522;28;19928;-78
2022/07/08 09:06:59;;;;;;;;;;;32.70;60.60;;;;;;5046925;28;19925;-78
2022/07/08 09:09:26;;;;;;;;;;;31.80;61.80;;;;;;5059560;28;19925;-78
2022/07/08 09:11:53;;;;;;;;;;;31.30;63.00;;;;;;5030482;28;19921;-78
2022/07/08 09:14:23;;;;;;;;;;;31.00;64.20;;;;;;5029819;28;20385;-78
2022/07/08 09:17:12;;;;;;;;;;;31.10;64.60;;;;;;5062554;28;19963;-78
2022/07/08 09:19:44;;;;;;;;;;;30.90;64.10;;;;;;5057643;28;19931;-79
2022/07/08 09:22:11;;;;;;;;;;;30.90;64.30;;;;;;5029162;28;19979;-78
2022/07/08 09:24:38;;;;;;;;;;;30.80;64.70;;;;;;5035077;28;19921;-80
2022/07/08 09:27:06;;;;;;;;;;;30.80;65.10;;;;;;5042053;28;19921;-81
2022/07/08 09:29:33;;;;;;;;;;;30.80;63.70;;;;;;5041750;28;19925;-81
2022/07/08 09:32:12;;;;;;;;;;;30.70;65.10;;;;;;5038241;28;19921;-79
2022/07/08 09:34:39;;;;;;;;;;;30.40;64.90;;;;;;5039837;28;19929;-79
2022/07/08 09:37:24;;;;;;;;;;;30.10;65.90;;;;;;5038180;28;19921;-79
2022/07/08 09:39:51;;;;;;;;;;;29.50;66.30;;;;;;5034750;28;20411;-79
2022/07/08 09:42:18;;;;;;;;;;;29.40;67.50;;;;;;5060998;28;19955;-80
2022/07/08 09:44:51;;;;;;;;;;;29.40;67.80;;;;;;5061303;28;19931;-80
2022/07/08 09:47:20;;;;;;;;;;;29.80;67.20;;;;;;5039270;28;19933;-80
2022/07/08 09:49:47;;;;;;;;;;;30.40;66.30;;;;;;5040711;28;19909;-81
2022/07/08 09:52:20;;;;;;;;;;;30.70;66.50;;;;;;5046012;28;19921;-79
2022/07/08 09:54:59;;;;;;;;;;;31.00;65.20;;;;;;5039516;28;19925;-80
2022/07/08 09:57:26;;;;;;;;;;;31.30;64.80;;;;;;5036587;28;19932;-80
2022/07/08 09:59:54;;;;;;;;;;;31.60;63.40;;;;;;5044994;28;19921;-79
2022/07/08 10:02:23;;;;;;;;;;;31.50;63.30;;;;;;5047089;28;19924;-79
2022/07/08 10:04:50;;;;;;;;;;;31.30;63.00;;;;;;5036750;28;19932;-79
2022/07/08 10:07:17;;;;;;;;;;;31.10;64.20;;;;;;5030914;28;19964;-76
2022/07/08 10:09:45;;;;;;;;;;;30.40;61.70;;;;;;5031960;28;19920;-80
2022/07/08 10:12:14;;;;;;;;;;;28.80;63.20;;;;;;5031761;28;19921;-80
2022/07/08 10:14:41;;;;;;;;;;;28.80;64.20;;;;;;5031954;28;19925;-80
2022/07/08 10:17:10;;;;;;;;;;;28.20;65.80;;;;;;5033221;28;20016;-79
2022/07/08 10:19:38;;;;;;;;;;;27.90;66.60;;;;;;5032253;28;20479;-79
2022/07/08 10:22:07;;;;;;;;;;;27.70;67.60;;;;;;5032323;28;19925;-80
2022/07/08 10:24:37;;;;;;;;;;;27.60;68.50;;;;;;5032406;28;20700;-81
2022/07/08 10:27:05;;;;;;;;;;;27.60;69.10;;;;;;5033568;28;20385;-78
2022/07/08 10:29:33;;;;;;;;;;;27.70;69.30;;;;;;5032690;28;19956;-78
2022/07/08 10:32:00;;;;;;;;;;;27.60;69.40;;;;;;5034559;28;20417;-78
2022/07/08 10:34:31;;;;;;;;;;;27.50;70.00;;;;;;5013234;28;19921;-79
2022/07/08 10:36:59;;;;;;;;;;;27.60;70.60;;;;;;5012120;28;19925;-79
2022/07/08 10:39:26;;;;;;;;;;;27.80;69.70;;;;;;5011997;28;19927;-78
2022/07/08 10:41:58;;;;;;;;;;;27.80;69.70;;;;;;5009338;28;19933;-79
2022/07/08 10:44:43;;;;;;;;;;;28.00;70.70;;;;;;5009289;28;19941;-79
2022/07/08 10:47:10;;;;;;;;;;;28.30;71.00;;;;;;5025980;28;19925;-79
2022/07/08 10:49:40;;;;;;;;;;;28.90;70.10;;;;;;5013443;28;19932;-79
2022/07/08 10:52:08;;;;;;;;;;;29.20;69.70;;;;;;5045076;28;20300;-78
2022/07/08 10:54:38;;;;;;;;;;;29.30;68.20;;;;;;5053175;28;20519;-76
2022/07/08 10:57:10;;;;;;;;;;;29.40;68.80;;;;;;5047248;28;19927;-76
2022/07/08 10:59:37;;;;;;;;;;;29.60;69.10;;;;;;5049329;28;19962;-79
2022/07/08 11:02:05;;;;;;;;;;;29.70;68.70;;;;;;5043562;28;19925;-76
2022/07/08 11:04:43;;;;;;;;;;;29.70;68.20;;;;;;5032525;28;19975;-76
2022/07/08 11:07:29;;;;;;;;;;;29.70;68.20;;;;;;5032027;28;20416;-78
2022/07/08 11:09:57;;;;;;;;;;;29.50;68.20;;;;;;5483540;22;19925;-78
2022/07/08 11:12:26;;;;;;;;;;;29.50;69.20;;;;;;5033121;28;19949;-78
2022/07/08 11:14:53;;;;;;;;;;;29.60;69.30;;;;;;5054906;28;20066;-78
2022/07/08 11:17:21;;;;;;;;;;;29.50;68.80;;;;;;5035984;28;19956;-76
2022/07/08 11:19:49;;;;;;;;;;;29.50;69.20;;;;;;5049385;28;20019;-76
2022/07/08 11:22:17;;;;;;;;;;;29.50;69.30;;;;;;5055440;28;19991;-77
2022/07/08 11:24:47;;;;;;;;;;;29.70;69.40;;;;;;5056043;28;19936;-76
2022/07/08 11:27:14;;;;;;;;;;;29.70;68.90;;;;;;5055278;28;19938;-76
2022/07/08 11:29:49;;;;;;;;;;;29.90;68.80;;;;;;5055541;28;20322;-76
2022/07/08 11:32:18;;;;;;;;;;;30.10;69.20;;;;;;5055578;28;19921;-76
2022/07/08 11:34:46;;;;;;;;;;;30.20;69.00;;;;;;5055026;28;19928;-78
2022/07/08 11:37:14;;;;;;;;;;;30.30;68.80;;;;;;5054945;28;19920;-78
2022/07/08 11:39:44;;;;;;;;;;;30.20;67.60;;;;;;5053183;28;19928;-77
2022/07/08 11:42:13;;;;;;;;;;;30.20;68.20;;;;;;5040072;28;19920;-77
2022/07/08 11:44:44;;;;;;;;;;;30.30;68.20;;;;;;5034419;28;20027;-77
2022/07/08 11:47:14;;;;;;;;;;;30.30;68.30;;;;;;5066479;28;19927;-76
2022/07/08 11:49:42;;;;;;;;;;;30.20;67.40;;;;;;5068392;28;19945;-77
2022/07/08 11:52:09;;;;;;;;;;;30.30;67.80;;;;;;5092931;28;19967;-76
2022/07/08 11:54:37;;;;;;;;;;;30.40;68.10;;;;;;5068768;28;19954;-77
2022/07/08 11:57:05;;;;;;;;;;;30.60;67.20;;;;;;5053128;28;20014;-77
2022/07/08 11:59:34;;;;;;;;;;;30.70;67.50;;;;;;5053309;28;19931;-76
2022/07/08 12:02:02;;;;;;;;;;;30.60;68.40;;;;;;5054463;28;20391;-77
2022/07/08 12:04:29;;;;;;;;;;;30.50;66.90;;;;;;5054608;28;19920;-77
2022/07/08 12:07:19;;;;;;;;;;;30.50;67.20;;;;;;5072325;28;19928;-77
2022/07/08 12:09:52;;;;;;;;;;;30.50;68.00;;;;;;5055076;28;19985;-77
2022/07/08 12:12:21;;;;;;;;;;;30.60;67.80;;;;;;5072729;28;20015;-77
2022/07/08 12:14:50;;;;;;;;;;;30.60;67.70;;;;;;5072678;28;19939;-76
2022/07/08 12:17:22;;;;;;;;;;;30.50;67.50;;;;;;5054771;28;20002;-77
2022/07/08 12:19:52;;;;;;;;;;;30.60;67.70;;;;;;5054818;28;19921;-77
2022/07/08 12:22:39;;;;;;;;;;;30.60;68.20;;;;;;5053568;28;19920;-77
2022/07/08 12:25:07;;;;;;;;;;;30.50;67.90;;;;;;5070091;28;19924;-77
2022/07/08 12:27:34;;;;;;;;;;;30.20;68.20;;;;;;5034022;28;19925;-77
2022/07/08 12:30:04;;;;;;;;;;;30.20;67.80;;;;;;5066750;28;19921;-77
2022/07/08 12:32:37;;;;;;;;;;;30.00;68.70;;;;;;5052340;28;20003;-76
2022/07/08 12:35:04;;;;;;;;;;;30.00;69.60;;;;;;5067558;28;19921;-77
2022/07/08 12:37:31;;;;;;;;;;;30.00;69.70;;;;;;5061590;28;20287;-77
2022/07/08 12:40:12;;;;;;;;;;;30.20;69.40;;;;;;5071600;28;19972;-77
2022/07/08 12:42:39;;;;;;;;;;;30.30;69.20;;;;;;5052723;28;19924;-77
2022/07/08 12:45:14;;;;;;;;;;;30.20;69.40;;;;;;5049752;28;19975;-77
2022/07/08 12:47:41;;;;;;;;;;;30.30;69.20;;;;;;5053309;28;20019;-77
2022/07/08 12:50:09;;;;;;;;;;;30.60;69.10;;;;;;5063420;28;19940;-78
2022/07/08 12:52:37;;;;;;;;;;;30.70;68.80;;;;;;5039075;28;19932;-76
2022/07/08 12:55:06;;;;;;;;;;;30.80;68.50;;;;;;5048871;28;19920;-77
2022/07/08 12:57:33;;;;;;;;;;;30.90;68.80;;;;;;5063904;28;19935;-77
2022/07/08 13:00:00;;;;;;;;;;;31.20;68.30;;;;;;5045390;28;19921;-77
2022/07/08 13:02:29;;;;;;;;;;;31.30;68.40;;;;;;5065180;28;19934;-78
2022/07/08 13:04:57;;;;;;;;;;;31.40;68.20;;;;;;5049184;28;20308;-77
2022/07/08 13:07:24;;;;;;;;;;;31.40;67.10;;;;;;5054737;28;19920;-78
2022/07/08 13:09:51;;;;;;;;;;;31.70;68.00;;;;;;5472376;22;19928;-78
2022/07/08 13:12:19;;;;;;;;;;;32.00;67.00;;;;;;5097011;28;20417;-77
2022/07/08 13:14:46;;;;;;;;;;;32.10;67.30;;;;;;5093023;28;19920;-78
2022/07/08 13:17:14;;;;;;;;;;;32.20;67.00;;;;;;5092206;28;20399;-77
2022/07/08 13:19:43;;;;;;;;;;;32.20;66.60;;;;;;5104791;28;19975;-77
2022/07/08 13:22:10;;;;;;;;;;;32.10;66.30;;;;;;5110574;28;19924;-77
2022/07/08 13:24:37;;;;;;;;;;;31.90;67.30;;;;;;5111957;28;20291;-77
2022/07/08 13:27:05;;;;;;;;;;;31.80;67.10;;;;;;5110208;28;20101;-77
2022/07/08 13:29:33;;;;;;;;;;;31.60;67.30;;;;;;5111097;28;20397;-77
2022/07/08 13:32:00;;;;;;;;;;;31.60;68.00;;;;;;5108995;28;19923;-77
2022/07/08 13:34:27;;;;;;;;;;;31.50;67.90;;;;;;5129658;27;19934;-78
2022/07/08 13:36:56;;;;;;;;;;;31.30;67.70;;;;;;5115085;27;19920;-78
2022/07/08 13:39:23;;;;;;;;;;;31.10;68.60;;;;;;5111101;28;19950;-78
2022/07/08 13:41:50;;;;;;;;;;;31.00;68.80;;;;;;5113672;28;20336;-78
2022/07/08 13:44:19;;;;;;;;;;;31.00;69.20;;;;;;5107772;28;19923;-78
2022/07/08 13:46:47;;;;;;;;;;;31.00;68.60;;;;;;5127320;27;19920;-79
2022/07/08 13:49:14;;;;;;;;;;;30.90;68.40;;;;;;5111664;28;19997;-78
2022/07/08 13:51:43;;;;;;;;;;;31.00;69.20;;;;;;5098026;28;19924;-78
2022/07/08 13:54:11;;;;;;;;;;;31.00;69.30;;;;;;5092108;28;20447;-79
2022/07/08 13:56:39;;;;;;;;;;;31.10;69.50;;;;;;5107280;28;20015;-78
2022/07/08 13:59:06;;;;;;;;;;;31.10;69.20;;;;;;5095519;28;19931;-78
2022/07/08 14:01:34;;;;;;;;;;;30.90;69.30;;;;;;5099387;28;20402;-80
2022/07/08 14:04:02;;;;;;;;;;;30.60;69.70;;;;;;5124659;27;19924;-81
2022/07/08 14:06:30;;;;;;;;;;;30.40;70.10;;;;;;5122777;27;19930;-81
2022/07/08 14:08:57;;;;;;;;;;;30.20;70.30;;;;;;5112882;28;19924;-81
2022/07/08 14:11:26;;;;;;;;;;;30.00;70.70;;;;;;5143519;27;19920;-82
2022/07/08 14:13:54;;;;;;;;;;;29.80;70.90;;;;;;5116268;28;19927;-77
2022/07/08 14:16:25;;;;;;;;;;;29.60;71.50;;;;;;5121714;28;19927;-77
2022/07/08 14:18:54;;;;;;;;;;;29.10;70.90;;;;;;5115021;28;19962;-77
2022/07/08 14:21:21;;;;;;;;;;;29.00;71.50;;;;;;5117867;28;20538;-78
2022/07/08 14:23:49;;;;;;;;;;;28.10;72.10;;;;;;5119941;28;19959;-79
2022/07/08 14:26:16;;;;;;;;;;;28.10;73.30;;;;;;5107162;28;19925;-76
2022/07/08 14:28:45;;;;;;;;;;;28.00;74.20;;;;;;5110064;28;19920;-78
2022/07/08 14:31:13;;;;;;;;;;;28.00;75.10;;;;;;5110391;28;19969;-76